sensor_id;sensor_type;location;lat;lon;timestamp;pressure;altitude;pressure_sealevel;temperature;humidity
69153;BME280;56261;51.580;4.578;2023-02-28T00:00:29;103278.72;;;0.73;100.00
69153;BME280;56261;51.580;4.578;2023-02-28T00:02:54;103265.72;;;0.69;100.00
69153;BME280;56261;51.580;4.578;2023-02-28T00:05:21;103270.78;;;0.75;100.00
69153;BME280;56261;51.580;4.578;2023-02-28T00:07:48;103273.31;;;0.78;100.00
69153;BME280;56261;51.580;4.578;2023-02-28T00:10:16;103270.09;;;0.68;100.00
69153;BME280;56261;51.580;4.578;2023-02-28T00:12:46;103274.53;;;0.66;100.00
69153;BME280;56261;51.580;4.578;2023-02-28T00:15:12;103279.91;;;0.63;100.00
69153;BME280;56261;51.580;4.578;2023-02-28T00:17:37;103273.69;;;0.66;100.00
69153;BME280;56261;51.580;4.578;2023-02-28T00:20:04;103269.47;;;0.60;100.00
69153;BME280;56261;51.580;4.578;2023-02-28T00:22:33;103263.16;;;0.67;100.00
69153;BME280;56261;51.580;4.578;2023-02-28T00:24:59;103271.03;;;0.67;100.00
69153;BME280;56261;51.580;4.578;2023-02-28T00:27:24;103267.63;;;0.64;100.00
69153;BME280;56261;51.580;4.578;2023-02-28T00:29:49;103273.88;;;0.59;100.00
69153;BME280;56261;51.580;4.578;2023-02-28T00:32:15;103267.94;;;0.53;100.00
69153;BME280;56261;51.580;4.578;2023-02-28T00:34:40;103267.97;;;0.51;100.00
69153;BME280;56261;51.580;4.578;2023-02-28T00:37:07;103273.09;;;0.56;100.00
69153;BME280;56261;51.580;4.578;2023-02-28T00:39:35;103259.16;;;0.54;100.00
69153;BME280;56261;51.580;4.578;2023-02-28T00:42:01;103258.38;;;0.50;100.00
69153;BME280;56261;51.580;4.578;2023-02-28T00:44:27;103262.09;;;0.43;100.00
69153;BME280;56261;51.580;4.578;2023-02-28T00:46:53;103256.06;;;0.39;100.00
69153;BME280;56261;51.580;4.578;2023-02-28T00:49:19;103259.50;;;0.41;100.00
69153;BME280;56261;51.580;4.578;2023-02-28T00:51:45;103262.09;;;0.43;100.00
69153;BME280;56261;51.580;4.578;2023-02-28T00:54:14;103261.28;;;0.41;100.00
69153;BME280;56261;51.580;4.578;2023-02-28T00:56:39;103252.44;;;0.44;100.00
69153;BME280;56261;51.580;4.578;2023-02-28T00:59:05;103253.41;;;0.41;100.00
69153;BME280;56261;51.580;4.578;2023-02-28T01:01:30;103251.44;;;0.49;100.00
69153;BME280;56261;51.580;4.578;2023-02-28T01:03:55;103258.25;;;0.55;100.00
69153;BME280;56261;51.580;4.578;2023-02-28T01:06:21;103262.81;;;0.78;100.00
69153;BME280;56261;51.580;4.578;2023-02-28T01:08:46;103252.66;;;0.67;100.00
69153;BME280;56261;51.580;4.578;2023-02-28T01:11:15;103263.16;;;0.67;100.00
69153;BME280;56261;51.580;4.578;2023-02-28T01:13:42;103264.72;;;0.73;100.00
69153;BME280;56261;51.580;4.578;2023-02-28T01:16:08;103265.69;;;0.70;100.00
69153;BME280;56261;51.580;4.578;2023-02-28T01:18:33;103269.78;;;0.79;100.00
69153;BME280;56261;51.580;4.578;2023-02-28T01:21:06;103267.13;;;0.80;100.00
69153;BME280;56261;51.580;4.578;2023-02-28T01:23:32;103267.84;;;0.86;100.00
69153;BME280;56261;51.580;4.578;2023-02-28T01:26:04;103271.97;;;0.94;100.00
69153;BME280;56261;51.580;4.578;2023-02-28T01:28:29;103269.19;;;0.99;100.00
69153;BME280;56261;51.580;4.578;2023-02-28T01:30:55;103269.75;;;1.09;100.00
69153;BME280;56261;51.580;4.578;2023-02-28T01:33:20;103270.91;;;1.28;100.00
69153;BME280;56261;51.580;4.578;2023-02-28T01:35:46;103273.84;;;1.19;100.00
69153;BME280;56261;51.580;4.578;2023-02-28T01:38:11;103266.75;;;1.21;100.00
69153;BME280;56261;51.580;4.578;2023-02-28T01:40:36;103257.13;;;1.20;100.00
69153;BME280;56261;51.580;4.578;2023-02-28T01:43:02;103256.03;;;1.27;100.00
69153;BME280;56261;51.580;4.578;2023-02-28T01:45:31;103266.63;;;1.26;100.00
69153;BME280;56261;51.580;4.578;2023-02-28T01:48:05;103253.22;;;1.33;100.00
69153;BME280;56261;51.580;4.578;2023-02-28T01:50:37;103254.78;;;1.39;100.00
69153;BME280;56261;51.580;4.578;2023-02-28T01:53:07;103259.91;;;1.43;100.00
69153;BME280;56261;51.580;4.578;2023-02-28T01:55:35;103254.16;;;1.31;100.00
69153;BME280;56261;51.580;4.578;2023-02-28T01:58:03;103265.53;;;1.31;100.00
69153;BME280;56261;51.580;4.578;2023-02-28T02:00:30;103266.28;;;1.36;100.00
69153;BME280;56261;51.580;4.578;2023-02-28T02:02:57;103271.66;;;1.32;100.00
69153;BME280;56261;51.580;4.578;2023-02-28T02:05:30;103254.16;;;1.31;100.00
69153;BME280;56261;51.580;4.578;2023-02-28T02:08:05;103260.34;;;1.30;100.00
69153;BME280;56261;51.580;4.578;2023-02-28T02:10:46;103257.84;;;1.25;100.00
69153;BME280;56261;51.580;4.578;2023-02-28T02:18:39;103259.03;;;1.43;100.00
69153;BME280;56261;51.580;4.578;2023-02-28T02:35:11;103249.06;;;1.53;100.00
69153;BME280;56261;51.580;4.578;2023-02-28T02:40:22;103240.22;;;1.55;100.00
69153;BME280;56261;51.580;4.578;2023-02-28T02:42:56;103242.97;;;1.52;100.00
69153;BME280;56261;51.580;4.578;2023-02-28T02:46:03;103240.97;;;1.59;100.00
69153;BME280;56261;51.580;4.578;2023-02-28T02:48:32;103238.44;;;1.56;100.00
69153;BME280;56261;51.580;4.578;2023-02-28T02:51:01;103243.63;;;1.59;100.00
69153;BME280;56261;51.580;4.578;2023-02-28T02:53:38;103237.38;;;1.61;100.00
69153;BME280;56261;51.580;4.578;2023-02-28T02:56:07;103244.19;;;1.67;100.00
69153;BME280;56261;51.580;4.578;2023-02-28T02:58:37;103240.41;;;1.49;100.00
69153;BME280;56261;51.580;4.578;2023-02-28T03:01:11;103234.91;;;1.57;100.00
69153;BME280;56261;51.580;4.578;2023-02-28T03:03:38;103231.19;;;1.62;100.00
69153;BME280;56261;51.580;4.578;2023-02-28T03:06:04;103232.06;;;1.63;100.00
69153;BME280;56261;51.580;4.578;2023-02-28T03:08:34;103241.00;;;1.84;100.00
69153;BME280;56261;51.580;4.578;2023-02-28T03:11:03;103235.44;;;1.92;100.00
69153;BME280;56261;51.580;4.578;2023-02-28T03:19:37;103239.09;;;1.87;100.00
69153;BME280;56261;51.580;4.578;2023-02-28T03:25:18;103235.88;;;2.04;100.00
69153;BME280;56261;51.580;4.578;2023-02-28T03:28:12;103232.13;;;1.86;100.00
69153;BME280;56261;51.580;4.578;2023-02-28T03:30:48;103236.34;;;1.92;100.00
69153;BME280;56261;51.580;4.578;2023-02-28T03:33:21;103238.88;;;1.94;100.00
69153;BME280;56261;51.580;4.578;2023-02-28T03:35:53;103241.63;;;1.91;100.00
69153;BME280;56261;51.580;4.578;2023-02-28T03:38:29;103242.97;;;1.77;100.00
69153;BME280;56261;51.580;4.578;2023-02-28T03:41:42;103243.66;;;1.82;100.00
69153;BME280;56261;51.580;4.578;2023-02-28T03:44:04;103246.28;;;1.82;100.00
69153;BME280;56261;51.580;4.578;2023-02-28T03:46:34;103239.06;;;1.89;100.00
69153;BME280;56261;51.580;4.578;2023-02-28T03:49:23;103245.41;;;1.83;100.00
69153;BME280;56261;51.580;4.578;2023-02-28T03:51:51;103248.13;;;1.80;100.00
69153;BME280;56261;51.580;4.578;2023-02-28T03:54:25;103238.88;;;1.94;100.00
69153;BME280;56261;51.580;4.578;2023-02-28T03:58:01;103247.00;;;1.87;100.00
69153;BME280;56261;51.580;4.578;2023-02-28T04:00:08;103232.13;;;1.86;100.00
69153;BME280;56261;51.580;4.578;2023-02-28T04:02:35;103236.63;;;1.83;100.00
69153;BME280;56261;51.580;4.578;2023-02-28T04:05:01;103228.91;;;1.78;100.00
69153;BME280;56261;51.580;4.578;2023-02-28T04:07:29;103233.22;;;1.81;100.00
69153;BME280;56261;51.580;4.578;2023-02-28T04:09:56;103238.53;;;1.79;100.00
69153;BME280;56261;51.580;4.578;2023-02-28T04:12:21;103243.03;;;1.76;100.00
69153;BME280;56261;51.580;4.578;2023-02-28T04:14:48;103239.25;;;1.83;100.00
69153;BME280;56261;51.580;4.578;2023-02-28T04:17:14;103239.06;;;1.89;100.00
69153;BME280;56261;51.580;4.578;2023-02-28T04:19:39;103252.53;;;1.80;100.00
69153;BME280;56261;51.580;4.578;2023-02-28T04:22:05;103247.44;;;1.75;100.00
69153;BME280;56261;51.580;4.578;2023-02-28T04:24:30;103247.38;;;1.77;100.00
69153;BME280;56261;51.580;4.578;2023-02-28T04:26:57;103254.47;;;1.75;100.00
69153;BME280;56261;51.580;4.578;2023-02-28T04:29:29;103237.03;;;1.72;100.00
69153;BME280;56261;51.580;4.578;2023-02-28T04:31:55;103249.69;;;1.86;100.00
69153;BME280;56261;51.580;4.578;2023-02-28T04:34:25;103239.91;;;1.90;100.00
69153;BME280;56261;51.580;4.578;2023-02-28T04:36:51;103248.13;;;1.80;100.00
69153;BME280;56261;51.580;4.578;2023-02-28T04:39:19;103244.47;;;1.84;100.00
69153;BME280;56261;51.580;4.578;2023-02-28T04:41:45;103248.41;;;1.98;100.00
69153;BME280;56261;51.580;4.578;2023-02-28T04:44:11;103250.19;;;1.97;100.00
69153;BME280;56261;51.580;4.578;2023-02-28T04:46:36;103248.03;;;1.83;100.00
69153;BME280;56261;51.580;4.578;2023-02-28T04:49:02;103267.75;;;1.97;100.00
69153;BME280;56261;51.580;4.578;2023-02-28T04:51:28;103260.72;;;1.97;100.00
69153;BME280;56261;51.580;4.578;2023-02-28T04:53:53;103259.03;;;1.95;100.00
69153;BME280;56261;51.580;4.578;2023-02-28T04:56:19;103258.72;;;2.04;100.00
69153;BME280;56261;51.580;4.578;2023-02-28T04:58:45;103277.56;;;1.92;100.00
69153;BME280;56261;51.580;4.578;2023-02-28T05:01:24;103274.44;;;1.80;100.00
69153;BME280;56261;51.580;4.578;2023-02-28T05:03:56;103268.16;;;1.84;100.00
69153;BME280;56261;51.580;4.578;2023-02-28T05:06:23;103271.75;;;1.82;100.00
69153;BME280;56261;51.580;4.578;2023-02-28T05:08:49;103273.16;;;1.92;100.00
69153;BME280;56261;51.580;4.578;2023-02-28T05:13:45;103275.81;;;1.92;100.00
69153;BME280;56261;51.580;4.578;2023-02-28T05:16:11;103265.72;;;1.78;100.00
69153;BME280;56261;51.580;4.578;2023-02-28T05:18:37;103281.34;;;1.83;100.00
69153;BME280;56261;51.580;4.578;2023-02-28T05:21:03;103280.66;;;1.78;100.00
69153;BME280;56261;51.580;4.578;2023-02-28T05:23:29;103281.28;;;1.86;100.00
69153;BME280;56261;51.580;4.578;2023-02-28T05:25:54;103278.00;;;1.79;100.00
69153;BME280;56261;51.580;4.578;2023-02-28T05:28:20;103279.81;;;1.77;100.00
69153;BME280;56261;51.580;4.578;2023-02-28T05:30:46;103284.16;;;1.78;100.00
69153;BME280;56261;51.580;4.578;2023-02-28T05:33:12;103285.19;;;1.74;100.00
69153;BME280;56261;51.580;4.578;2023-02-28T05:35:39;103290.38;;;1.76;100.00
69153;BME280;56261;51.580;4.578;2023-02-28T05:38:04;103289.84;;;1.66;100.00
69153;BME280;56261;51.580;4.578;2023-02-28T05:40:30;103285.56;;;1.62;100.00
69153;BME280;56261;51.580;4.578;2023-02-28T05:42:55;103290.81;;;1.63;100.00
69153;BME280;56261;51.580;4.578;2023-02-28T05:45:21;103292.69;;;1.58;100.00
69153;BME280;56261;51.580;4.578;2023-02-28T05:47:46;103298.47;;;1.70;100.00
69153;BME280;56261;51.580;4.578;2023-02-28T05:50:11;103300.53;;;1.60;100.00
69153;BME280;56261;51.580;4.578;2023-02-28T05:52:37;103292.97;;;1.51;100.00
69153;BME280;56261;51.580;4.578;2023-02-28T05:55:03;103299.25;;;1.45;100.00
69153;BME280;56261;51.580;4.578;2023-02-28T05:57:29;103300.88;;;1.49;100.00
69153;BME280;56261;51.580;4.578;2023-02-28T05:59:54;103310.44;;;1.52;100.00
69153;BME280;56261;51.580;4.578;2023-02-28T06:02:20;103300.69;;;1.55;100.00
69153;BME280;56261;51.580;4.578;2023-02-28T06:04:45;103305.09;;;1.55;100.00
69153;BME280;56261;51.580;4.578;2023-02-28T06:07:11;103293.66;;;1.56;100.00
69153;BME280;56261;51.580;4.578;2023-02-28T06:09:37;103292.09;;;1.50;100.00
69153;BME280;56261;51.580;4.578;2023-02-28T06:12:05;103297.91;;;1.60;100.00
69153;BME280;56261;51.580;4.578;2023-02-28T06:14:33;103300.97;;;1.74;100.00
69153;BME280;56261;51.580;4.578;2023-02-28T06:16:59;103293.13;;;1.73;100.00
69153;BME280;56261;51.580;4.578;2023-02-28T06:19:25;103293.06;;;1.74;100.00
69153;BME280;56261;51.580;4.578;2023-02-28T06:21:51;103299.19;;;1.75;100.00
69153;BME280;56261;51.580;4.578;2023-02-28T06:24:21;103298.22;;;1.77;100.00
69153;BME280;56261;51.580;4.578;2023-02-28T06:26:47;103288.88;;;1.69;100.00
69153;BME280;56261;51.580;4.578;2023-02-28T06:29:13;103296.28;;;1.56;100.00
69153;BME280;56261;51.580;4.578;2023-02-28T06:31:43;103297.91;;;1.60;100.00
69153;BME280;56261;51.580;4.578;2023-02-28T06:34:09;103288.38;;;1.57;100.00
69153;BME280;56261;51.580;4.578;2023-02-28T06:36:40;103286.25;;;1.69;100.00
69153;BME280;56261;51.580;4.578;2023-02-28T06:39:07;103279.31;;;1.66;100.00
69153;BME280;56261;51.580;4.578;2023-02-28T06:41:33;103284.31;;;1.74;100.00
69153;BME280;56261;51.580;4.578;2023-02-28T06:44:04;103275.31;;;1.54;100.00
69153;BME280;56261;51.580;4.578;2023-02-28T06:46:31;103282.13;;;1.60;100.00
69153;BME280;56261;51.580;4.578;2023-02-28T06:48:57;103284.47;;;1.69;100.00
69153;BME280;56261;51.580;4.578;2023-02-28T06:51:22;103290.44;;;1.74;100.00
69153;BME280;56261;51.580;4.578;2023-02-28T06:53:49;103282.31;;;1.80;100.00
69153;BME280;56261;51.580;4.578;2023-02-28T06:56:16;103281.44;;;1.81;100.00
69153;BME280;56261;51.580;4.578;2023-02-28T06:58:46;103287.19;;;1.93;100.00
69153;BME280;56261;51.580;4.578;2023-02-28T07:01:13;103286.09;;;1.98;100.00
69153;BME280;56261;51.580;4.578;2023-02-28T07:03:38;103280.91;;;1.97;100.00
69153;BME280;56261;51.580;4.578;2023-02-28T07:06:05;103287.75;;;1.76;100.00
69153;BME280;56261;51.580;4.578;2023-02-28T07:08:30;103298.41;;;1.71;100.00
69153;BME280;56261;51.580;4.578;2023-02-28T07:10:57;103285.69;;;1.85;100.00
69153;BME280;56261;51.580;4.578;2023-02-28T07:13:23;103292.16;;;1.75;100.00
69153;BME280;56261;51.580;4.578;2023-02-28T07:16:10;103290.28;;;1.79;100.00
69153;BME280;56261;51.580;4.578;2023-02-28T07:18:36;103297.09;;;1.84;100.00
69153;BME280;56261;51.580;4.578;2023-02-28T07:21:03;103308.63;;;1.80;100.00
69153;BME280;56261;51.580;4.578;2023-02-28T07:23:29;103305.81;;;1.86;100.00
69153;BME280;56261;51.580;4.578;2023-02-28T07:25:54;103306.63;;;1.89;100.00
69153;BME280;56261;51.580;4.578;2023-02-28T07:28:20;103306.50;;;1.92;100.00
69153;BME280;56261;51.580;4.578;2023-02-28T07:30:45;103311.31;;;2.05;100.00
69153;BME280;56261;51.580;4.578;2023-02-28T07:33:11;103305.06;;;2.08;100.00
69153;BME280;56261;51.580;4.578;2023-02-28T07:35:36;103304.34;;;2.03;100.00
69153;BME280;56261;51.580;4.578;2023-02-28T07:38:02;103295.44;;;2.07;100.00
69153;BME280;56261;51.580;4.578;2023-02-28T07:40:28;103298.41;;;2.23;100.00
69153;BME280;56261;51.580;4.578;2023-02-28T07:42:53;103298.78;;;2.37;100.00
69153;BME280;56261;51.580;4.578;2023-02-28T07:45:19;103283.88;;;2.36;100.00
69153;BME280;56261;51.580;4.578;2023-02-28T07:47:44;103302.25;;;2.38;100.00
69153;BME280;56261;51.580;4.578;2023-02-28T07:50:12;103305.09;;;2.32;100.00
69153;BME280;56261;51.580;4.578;2023-02-28T07:52:38;103302.03;;;2.19;100.00
69153;BME280;56261;51.580;4.578;2023-02-28T07:55:08;103297.72;;;2.18;100.00
69153;BME280;56261;51.580;4.578;2023-02-28T07:57:34;103291.22;;;2.28;100.00
69153;BME280;56261;51.580;4.578;2023-02-28T08:00:00;103284.41;;;2.46;100.00
69153;BME280;56261;51.580;4.578;2023-02-28T08:02:25;103296.19;;;2.36;100.00
69153;BME280;56261;51.580;4.578;2023-02-28T08:04:51;103287.84;;;2.48;100.00
69153;BME280;56261;51.580;4.578;2023-02-28T08:07:17;103290.78;;;2.64;100.00
69153;BME280;56261;51.580;4.578;2023-02-28T08:09:43;103297.06;;;2.60;100.00
69153;BME280;56261;51.580;4.578;2023-02-28T08:12:10;103310.50;;;2.52;100.00
69153;BME280;56261;51.580;4.578;2023-02-28T08:14:36;103305.03;;;2.58;100.00
69153;BME280;56261;51.580;4.578;2023-02-28T08:17:02;103302.13;;;2.66;100.00
69153;BME280;56261;51.580;4.578;2023-02-28T08:19:27;103304.78;;;2.41;100.00
69153;BME280;56261;51.580;4.578;2023-02-28T08:21:53;103308.47;;;2.60;100.00
69153;BME280;56261;51.580;4.578;2023-02-28T08:24:19;103301.25;;;2.65;100.00
69153;BME280;56261;51.580;4.578;2023-02-28T08:26:44;103301.81;;;2.50;100.00
69153;BME280;56261;51.580;4.578;2023-02-28T08:29:09;103306.03;;;2.54;100.00
69153;BME280;56261;51.580;4.578;2023-02-28T08:31:35;103315.72;;;2.54;100.00
69153;BME280;56261;51.580;4.578;2023-02-28T08:34:08;103320.56;;;2.41;100.00
69153;BME280;56261;51.580;4.578;2023-02-28T08:36:34;103318.59;;;2.47;100.00
69153;BME280;56261;51.580;4.578;2023-02-28T08:39:00;103312.34;;;2.50;100.00
69153;BME280;56261;51.580;4.578;2023-02-28T08:41:26;103307.50;;;2.63;100.00
69153;BME280;56261;51.580;4.578;2023-02-28T08:43:52;103301.38;;;2.62;100.00
69153;BME280;56261;51.580;4.578;2023-02-28T08:46:19;103305.47;;;2.69;100.00
69153;BME280;56261;51.580;4.578;2023-02-28T08:48:44;103312.38;;;2.74;100.00
69153;BME280;56261;51.580;4.578;2023-02-28T08:51:15;103305.03;;;2.82;100.00
69153;BME280;56261;51.580;4.578;2023-02-28T08:53:47;103307.31;;;2.91;100.00
69153;BME280;56261;51.580;4.578;2023-02-28T08:56:15;103292.66;;;2.84;100.00
69153;BME280;56261;51.580;4.578;2023-02-28T08:58:42;103296.06;;;3.09;100.00
69153;BME280;56261;51.580;4.578;2023-02-28T09:01:10;103297.63;;;2.91;100.00
69153;BME280;56261;51.580;4.578;2023-02-28T09:03:37;103297.03;;;3.07;100.00
69153;BME280;56261;51.580;4.578;2023-02-28T09:06:02;103304.81;;;3.10;100.00
69153;BME280;56261;51.580;4.578;2023-02-28T09:08:29;103304.00;;;3.08;100.00
69153;BME280;56261;51.580;4.578;2023-02-28T09:10:56;103303.97;;;3.09;100.00
69153;BME280;56261;51.580;4.578;2023-02-28T09:13:23;103298.03;;;3.26;100.00
69153;BME280;56261;51.580;4.578;2023-02-28T09:15:48;103302.94;;;3.36;100.00
69153;BME280;56261;51.580;4.578;2023-02-28T09:18:14;103308.63;;;3.03;100.00
69153;BME280;56261;51.580;4.578;2023-02-28T09:20:41;103319.97;;;3.05;100.00
69153;BME280;56261;51.580;4.578;2023-02-28T09:23:08;103316.06;;;2.91;100.00
69153;BME280;56261;51.580;4.578;2023-02-28T09:25:34;103325.78;;;2.91;100.00
69153;BME280;56261;51.580;4.578;2023-02-28T09:28:00;103328.19;;;2.97;100.00
69153;BME280;56261;51.580;4.578;2023-02-28T09:30:25;103316.34;;;3.07;100.00
69153;BME280;56261;51.580;4.578;2023-02-28T09:32:51;103314.56;;;3.30;100.00
69153;BME280;56261;51.580;4.578;2023-02-28T09:35:25;103304.53;;;3.40;100.00
69153;BME280;56261;51.580;4.578;2023-02-28T09:37:52;103307.47;;;3.54;100.00
69153;BME280;56261;51.580;4.578;2023-02-28T09:40:19;103307.88;;;3.65;100.00
69153;BME280;56261;51.580;4.578;2023-02-28T09:42:47;103309.06;;;3.58;100.00
69153;BME280;56261;51.580;4.578;2023-02-28T09:45:38;103309.97;;;4.00;100.00
69153;BME280;56261;51.580;4.578;2023-02-28T09:48:21;103315.09;;;3.82;100.00
69153;BME280;56261;51.580;4.578;2023-02-28T09:50:55;103310.31;;;3.70;100.00
69153;BME280;56261;51.580;4.578;2023-02-28T09:53:34;103309.84;;;4.03;100.00
69153;BME280;56261;51.580;4.578;2023-02-28T09:56:12;103305.84;;;4.13;100.00
69153;BME280;56261;51.580;4.578;2023-02-28T09:59:01;103301.09;;;4.21;100.00
69153;BME280;56261;51.580;4.578;2023-02-28T10:07:02;103296.59;;;4.44;99.16
69153;BME280;56261;51.580;4.578;2023-02-28T10:09:33;103297.91;;;4.73;100.00
69153;BME280;56261;51.580;4.578;2023-02-28T10:12:03;103303.56;;;4.65;98.64
69153;BME280;56261;51.580;4.578;2023-02-28T10:14:33;103290.28;;;4.67;95.46
69153;BME280;56261;51.580;4.578;2023-02-28T10:17:16;103294.25;;;4.75;95.08
69153;BME280;56261;51.580;4.578;2023-02-28T10:20:13;103294.25;;;4.56;87.59
69153;BME280;56261;51.580;4.578;2023-02-28T10:25:23;103288.00;;;4.39;81.85
69153;BME280;56261;51.580;4.578;2023-02-28T10:27:51;103280.09;;;4.57;89.30
69153;BME280;56261;51.580;4.578;2023-02-28T10:30:18;103266.66;;;4.24;85.43
69153;BME280;56261;51.580;4.578;2023-02-28T10:32:53;103275.88;;;4.34;85.77
69153;BME280;56261;51.580;4.578;2023-02-28T10:35:20;103272.81;;;4.82;85.08
69153;BME280;56261;51.580;4.578;2023-02-28T10:37:53;103275.19;;;4.88;83.14
69153;BME280;56261;51.580;4.578;2023-02-28T10:45:25;103269.06;;;5.24;82.88
69153;BME280;56261;51.580;4.578;2023-02-28T10:47:53;103265.31;;;5.10;85.42
69153;BME280;56261;51.580;4.578;2023-02-28T10:50:34;103254.31;;;5.37;83.34
69153;BME280;56261;51.580;4.578;2023-02-28T10:53:10;103252.38;;;5.40;80.11
69153;BME280;56261;51.580;4.578;2023-02-28T10:55:40;103256.81;;;5.04;78.07
69153;BME280;56261;51.580;4.578;2023-02-28T10:58:27;103256.78;;;5.23;80.25
69153;BME280;56261;51.580;4.578;2023-02-28T11:00:53;103250.38;;;5.27;75.19
69153;BME280;56261;51.580;4.578;2023-02-28T11:03:37;103244.91;;;5.66;80.18
69153;BME280;56261;51.580;4.578;2023-02-28T11:06:08;103239.38;;;5.88;79.05
69153;BME280;56261;51.580;4.578;2023-02-28T11:08:44;103242.78;;;5.73;77.42
69153;BME280;56261;51.580;4.578;2023-02-28T11:11:10;103233.78;;;5.77;79.83
69153;BME280;56261;51.580;4.578;2023-02-28T11:13:36;103238.81;;;5.81;74.28
69153;BME280;56261;51.580;4.578;2023-02-28T11:16:07;103245.53;;;5.36;72.55
69153;BME280;56261;51.580;4.578;2023-02-28T11:21:29;103246.84;;;5.62;69.63
69153;BME280;56261;51.580;4.578;2023-02-28T11:24:33;103237.28;;;5.43;69.96
69153;BME280;56261;51.580;4.578;2023-02-28T11:26:51;103246.78;;;5.10;68.63
69153;BME280;56261;51.580;4.578;2023-02-28T11:34:27;103237.56;;;5.19;66.13
69153;BME280;56261;51.580;4.578;2023-02-28T11:36:57;103246.63;;;5.50;72.79
69153;BME280;56261;51.580;4.578;2023-02-28T11:39:24;103234.31;;;5.66;70.55
69153;BME280;56261;51.580;4.578;2023-02-28T11:44:44;103242.78;;;5.38;67.51
69153;BME280;56261;51.580;4.578;2023-02-28T12:03:18;103225.59;;;5.47;62.34
69153;BME280;56261;51.580;4.578;2023-02-28T12:06:19;103217.88;;;5.77;64.37
69153;BME280;56261;51.580;4.578;2023-02-28T12:17:22;103215.53;;;5.71;64.35
69153;BME280;56261;51.580;4.578;2023-02-28T12:20:02;103210.34;;;5.34;59.94
69153;BME280;56261;51.580;4.578;2023-02-28T12:22:52;103198.09;;;5.67;59.81
69153;BME280;56261;51.580;4.578;2023-02-28T12:25:31;103195.16;;;5.55;60.51
69153;BME280;56261;51.580;4.578;2023-02-28T12:28:02;103198.25;;;5.64;59.42
69153;BME280;56261;51.580;4.578;2023-02-28T12:30:32;103193.50;;;6.05;64.20
69153;BME280;56261;51.580;4.578;2023-02-28T12:33:11;103187.31;;;5.36;58.08
69153;BME280;56261;51.580;4.578;2023-02-28T12:35:53;103190.56;;;5.59;61.14
69153;BME280;56261;51.580;4.578;2023-02-28T12:41:04;103190.88;;;5.53;58.15
69153;BME280;56261;51.580;4.578;2023-02-28T12:43:36;103177.38;;;5.75;58.01
69153;BME280;56261;51.580;4.578;2023-02-28T12:49:13;103184.66;;;5.87;58.48
69153;BME280;56261;51.580;4.578;2023-02-28T12:51:41;103188.66;;;5.96;59.15
69153;BME280;56261;51.580;4.578;2023-02-28T12:54:12;103178.44;;;5.88;54.96
69153;BME280;56261;51.580;4.578;2023-02-28T12:59:25;103175.88;;;5.87;58.39
69153;BME280;56261;51.580;4.578;2023-02-28T13:05:01;103160.50;;;5.60;57.99
69153;BME280;56261;51.580;4.578;2023-02-28T13:10:20;103157.06;;;6.09;59.04
69153;BME280;56261;51.580;4.578;2023-02-28T13:12:50;103155.28;;;6.09;57.37
69153;BME280;56261;51.580;4.578;2023-02-28T13:15:28;103152.34;;;5.98;58.43
69153;BME280;56261;51.580;4.578;2023-02-28T13:17:58;103147.19;;;6.28;58.76
69153;BME280;56261;51.580;4.578;2023-02-28T13:20:35;103136.47;;;6.14;57.50
69153;BME280;56261;51.580;4.578;2023-02-28T13:23:02;103147.00;;;6.31;57.30
69153;BME280;56261;51.580;4.578;2023-02-28T13:25:50;103136.66;;;6.42;55.53
69153;BME280;56261;51.580;4.578;2023-02-28T13:29:20;103128.47;;;6.31;57.62
69153;BME280;56261;51.580;4.578;2023-02-28T13:31:25;103139.84;;;6.49;58.37
69153;BME280;56261;51.580;4.578;2023-02-28T13:36:26;103126.19;;;6.41;59.92
69153;BME280;56261;51.580;4.578;2023-02-28T13:38:56;103126.94;;;6.59;58.27
69153;BME280;56261;51.580;4.578;2023-02-28T13:44:03;103129.75;;;6.40;55.18
69153;BME280;56261;51.580;4.578;2023-02-28T13:46:30;103109.97;;;5.98;50.82
69153;BME280;56261;51.580;4.578;2023-02-28T13:48:56;103113.34;;;5.51;52.43
69153;BME280;56261;51.580;4.578;2023-02-28T13:51:44;103136.69;;;5.93;55.04
69153;BME280;56261;51.580;4.578;2023-02-28T14:00:34;103125.03;;;5.80;52.89
69153;BME280;56261;51.580;4.578;2023-02-28T14:05:21;103121.78;;;6.08;58.00
69153;BME280;56261;51.580;4.578;2023-02-28T14:07:53;103120.97;;;5.90;53.12
69153;BME280;56261;51.580;4.578;2023-02-28T14:10:44;103115.53;;;6.09;55.04
69153;BME280;56261;51.580;4.578;2023-02-28T14:13:37;103115.00;;;6.02;52.98
69153;BME280;56261;51.580;4.578;2023-02-28T14:16:05;103109.41;;;6.09;54.01
69153;BME280;56261;51.580;4.578;2023-02-28T14:18:40;103122.81;;;6.21;56.41
69153;BME280;56261;51.580;4.578;2023-02-28T14:21:23;103115.97;;;6.17;56.11
69153;BME280;56261;51.580;4.578;2023-02-28T14:37:33;103099.94;;;6.36;57.94
69153;BME280;56261;51.580;4.578;2023-02-28T14:40:00;103114.03;;;6.05;55.86
69153;BME280;56261;51.580;4.578;2023-02-28T14:42:36;103116.22;;;5.97;55.86
69153;BME280;56261;51.580;4.578;2023-02-28T14:45:04;103116.22;;;5.97;56.52
69153;BME280;56261;51.580;4.578;2023-02-28T14:47:34;103117.25;;;5.94;58.21
69153;BME280;56261;51.580;4.578;2023-02-28T14:50:03;103110.69;;;6.01;62.72
69153;BME280;56261;51.580;4.578;2023-02-28T14:52:31;103113.78;;;5.92;60.09
69153;BME280;56261;51.580;4.578;2023-02-28T14:55:00;103116.59;;;5.89;57.39
69153;BME280;56261;51.580;4.578;2023-02-28T14:57:34;103100.56;;;5.92;59.31
69153;BME280;56261;51.580;4.578;2023-02-28T15:00:01;103105.19;;;6.05;63.96
69153;BME280;56261;51.580;4.578;2023-02-28T15:02:35;103101.25;;;5.96;58.26
69153;BME280;56261;51.580;4.578;2023-02-28T15:05:50;103107.53;;;5.93;62.61
69153;BME280;56261;51.580;4.578;2023-02-28T15:07:49;103095.47;;;6.21;66.60
69153;BME280;56261;51.580;4.578;2023-02-28T15:10:27;103108.22;;;6.30;64.52